Asheville, North Carolina
Current Conditions -  °F | °C
As of 10:54 AM on Saturday 20 Dec 2014 (Local Time) from KAVL Reporting Station
Overcast Overcast  
Wind Chill: 34°   Ceiling: 5500
Heat Index: 40°   Visibility: 10mi
Dew Point: 35°   Wind: 9mph
Humidity: 83%   Direction: 140°SE
Pressure: 30.2"   Gusts: NA
Location:  35.6°N, 82.55°W
Report Text: KAVL 201554Z 14008KT 10SM SCT019 SCT027 OVC055 04/02 A3020 RMK AO2 SLP232 T00440017
Loading
Personal Weather Stations






























Interactive Weather Map New forecast layout! Learn more

10-Day Weather Forecast

Advertisements
Track Severe Weather on mobile